createdAt,value
2018-11-26T00:00:36.222Z,6.00
2018-11-26T00:03:08.643Z,5.80
2018-11-26T00:05:37.552Z,5.90
2018-11-26T00:08:06.851Z,5.90
2018-11-26T00:10:46.472Z,6.00
2018-11-26T00:13:14.644Z,6.00
2018-11-26T00:15:42.829Z,5.70
2018-11-26T00:18:11.030Z,5.70
2018-11-26T00:20:39.212Z,5.70
2018-11-26T00:23:07.509Z,5.70
2018-11-26T00:25:35.834Z,5.70
2018-11-26T00:28:03.986Z,5.70
2018-11-26T00:30:32.155Z,5.60
2018-11-26T00:33:00.483Z,5.60
2018-11-26T00:35:28.665Z,5.50
2018-11-26T00:37:56.843Z,5.60
2018-11-26T00:40:25.099Z,5.60
2018-11-26T00:42:53.288Z,5.70
2018-11-26T00:45:21.456Z,5.70
2018-11-26T00:47:49.647Z,5.70
2018-11-26T00:50:17.804Z,5.90
2018-11-26T00:52:45.981Z,5.80
2018-11-26T00:55:14.204Z,5.70
2018-11-26T00:57:42.354Z,5.70
2018-11-26T01:00:11.861Z,5.60
2018-11-26T01:02:40.062Z,5.60
2018-11-26T01:05:10.124Z,5.80
2018-11-26T01:07:38.311Z,5.80
2018-11-26T01:10:06.471Z,5.80
2018-11-26T01:12:34.645Z,5.90
2018-11-26T01:15:02.838Z,6.00
2018-11-26T01:17:31.017Z,5.90
2018-11-26T01:19:59.183Z,5.80
2018-11-26T01:22:27.362Z,5.70
2018-11-26T01:24:55.540Z,5.60
2018-11-26T01:27:23.731Z,5.70
2018-11-26T01:29:51.893Z,5.70
2018-11-26T01:32:20.076Z,5.70
2018-11-26T01:34:48.238Z,5.80
2018-11-26T01:37:16.407Z,5.70
2018-11-26T01:39:44.771Z,5.80
2018-11-26T01:42:12.932Z,5.80
2018-11-26T01:44:41.091Z,5.70
2018-11-26T01:47:09.255Z,5.70
2018-11-26T01:49:37.411Z,5.70
2018-11-26T01:52:05.932Z,5.70
2018-11-26T01:54:34.097Z,5.80
2018-11-26T01:57:02.275Z,5.80
2018-11-26T01:59:30.431Z,5.80
2018-11-26T02:01:58.624Z,5.70
2018-11-26T02:04:26.815Z,5.90
2018-11-26T02:06:54.976Z,6.00
2018-11-26T02:09:23.132Z,5.90
2018-11-26T02:11:51.290Z,5.80
2018-11-26T02:14:19.455Z,5.70
2018-11-26T02:16:47.639Z,5.80
2018-11-26T02:19:15.803Z,5.60
2018-11-26T02:21:43.959Z,5.70
2018-11-26T02:24:12.156Z,5.80
2018-11-26T02:26:40.324Z,5.80
2018-11-26T02:29:08.471Z,5.70
2018-11-26T02:31:36.627Z,5.70
2018-11-26T02:34:04.828Z,5.80
2018-11-26T02:36:33.009Z,5.70
2018-11-26T02:39:01.212Z,5.70
2018-11-26T02:41:29.380Z,5.80
2018-11-26T02:43:57.548Z,5.80
2018-11-26T02:46:25.704Z,5.70
2018-11-26T02:48:53.883Z,5.70
2018-11-26T02:51:22.056Z,5.80
2018-11-26T02:53:50.244Z,5.90
2018-11-26T02:56:18.413Z,5.90
2018-11-26T02:58:46.564Z,5.80
2018-11-26T03:01:14.761Z,5.70
2018-11-26T03:03:42.955Z,5.70
2018-11-26T03:06:11.130Z,5.70
2018-11-26T03:08:39.305Z,5.60
2018-11-26T03:11:07.481Z,5.70
2018-11-26T03:13:35.643Z,5.60
2018-11-26T03:16:03.812Z,5.50
2018-11-26T03:18:31.988Z,5.60
2018-11-26T03:21:00.135Z,5.50
2018-11-26T03:23:28.296Z,5.50
2018-11-26T03:25:56.441Z,5.60
2018-11-26T03:28:24.609Z,5.50
2018-11-26T03:30:52.768Z,5.60
2018-11-26T03:33:20.933Z,5.60
2018-11-26T03:35:49.100Z,5.60
2018-11-26T03:38:28.551Z,5.60
2018-11-26T03:40:56.717Z,5.50
2018-11-26T03:43:24.888Z,5.50
2018-11-26T03:45:53.081Z,5.40
2018-11-26T03:48:21.257Z,5.50
2018-11-26T03:50:49.394Z,5.50
2018-11-26T03:53:17.579Z,5.60
2018-11-26T03:55:45.733Z,5.40
2018-11-26T03:58:13.942Z,5.40
2018-11-26T04:00:42.110Z,5.50
2018-11-26T04:03:10.276Z,5.60
2018-11-26T04:05:38.446Z,5.60
2018-11-26T04:08:06.707Z,5.50
2018-11-26T04:10:34.852Z,5.50
2018-11-26T04:13:03.012Z,5.50
2018-11-26T04:15:31.190Z,5.50
2018-11-26T04:17:59.336Z,5.60
2018-11-26T04:20:27.500Z,5.50
2018-11-26T04:22:55.665Z,5.50
2018-11-26T04:25:23.840Z,5.60
2018-11-26T04:27:52.469Z,5.60
2018-11-26T04:32:55.389Z,5.60
2018-11-26T04:35:23.571Z,5.40
2018-11-26T04:37:51.744Z,5.40
2018-11-26T04:40:19.932Z,5.50
2018-11-26T04:42:48.111Z,5.40
2018-11-26T04:45:16.275Z,5.40
2018-11-26T04:47:44.428Z,5.50
2018-11-26T04:50:12.869Z,5.50
2018-11-26T04:52:41.072Z,5.50
2018-11-26T04:55:10.339Z,5.50
2018-11-26T04:57:42.341Z,5.50
2018-11-26T05:00:11.784Z,5.50
2018-11-26T05:02:39.964Z,5.60
2018-11-26T05:05:09.040Z,5.50
2018-11-26T05:07:37.195Z,5.60
2018-11-26T05:10:07.051Z,5.50
2018-11-26T05:12:35.267Z,5.60
2018-11-26T05:15:03.427Z,5.50
2018-11-26T05:17:31.597Z,5.50
2018-11-26T05:19:59.825Z,5.50
2018-11-26T05:22:27.980Z,5.60
2018-11-26T05:24:56.168Z,5.50
2018-11-26T05:27:24.327Z,5.50
2018-11-26T05:29:52.509Z,5.60
2018-11-26T05:32:20.680Z,5.40
2018-11-26T05:34:48.839Z,5.50
2018-11-26T05:37:17.000Z,5.50
2018-11-26T05:39:45.180Z,5.40
2018-11-26T05:42:13.363Z,5.40
2018-11-26T05:44:41.529Z,5.50
2018-11-26T05:47:09.697Z,5.50
2018-11-26T05:49:37.894Z,5.50
2018-11-26T05:52:06.252Z,5.50
2018-11-26T05:54:34.417Z,5.40
2018-11-26T05:57:02.595Z,5.40
2018-11-26T05:59:30.777Z,5.30
2018-11-26T06:01:58.986Z,5.50
2018-11-26T06:04:27.168Z,5.50
2018-11-26T06:06:55.363Z,5.50
2018-11-26T06:09:23.558Z,5.50
2018-11-26T06:11:51.735Z,5.40
2018-11-26T06:14:19.883Z,5.40
2018-11-26T06:16:53.411Z,5.30
2018-11-26T06:19:16.205Z,5.30
2018-11-26T06:21:44.369Z,5.30
2018-11-26T06:24:12.560Z,5.40
2018-11-26T06:26:40.721Z,5.30
2018-11-26T06:29:08.920Z,5.30
2018-11-26T06:31:37.079Z,5.30
2018-11-26T06:34:05.456Z,5.20
2018-11-26T06:36:33.639Z,5.30
2018-11-26T06:39:01.825Z,5.20
2018-11-26T06:41:30.005Z,5.30
2018-11-26T06:43:58.184Z,5.30
2018-11-26T06:46:26.349Z,5.10
2018-11-26T06:48:54.540Z,5.00
2018-11-26T06:51:22.713Z,5.00
2018-11-26T06:53:50.903Z,5.00
2018-11-26T06:56:19.091Z,5.10
2018-11-26T06:58:47.318Z,4.90
2018-11-26T07:01:15.513Z,4.90
2018-11-26T07:03:43.695Z,4.90
2018-11-26T07:06:11.897Z,4.80
2018-11-26T07:08:40.071Z,5.00
2018-11-26T07:11:08.256Z,4.90
2018-11-26T07:13:36.472Z,5.00
2018-11-26T07:16:04.884Z,5.10
2018-11-26T07:18:33.077Z,5.00
2018-11-26T07:21:01.278Z,4.80
2018-11-26T07:23:29.460Z,4.80
2018-11-26T07:25:57.659Z,4.90
2018-11-26T07:28:25.849Z,5.00
2018-11-26T07:30:54.021Z,4.90
2018-11-26T07:33:22.199Z,4.80
2018-11-26T07:35:50.376Z,4.80
2018-11-26T07:38:18.547Z,4.90
2018-11-26T07:40:46.711Z,4.90
2018-11-26T07:43:14.947Z,4.80
2018-11-26T07:45:43.174Z,4.90
2018-11-26T07:48:12.136Z,4.90
2018-11-26T07:50:40.346Z,4.80
2018-11-26T07:53:09.508Z,4.90
2018-11-26T07:55:38.092Z,5.00
2018-11-26T07:58:06.291Z,5.00
2018-11-26T08:00:34.463Z,5.20
2018-11-26T08:03:03.476Z,5.20
2018-11-26T08:05:31.654Z,5.20
2018-11-26T08:07:59.834Z,5.20
2018-11-26T08:10:27.996Z,5.20
2018-11-26T08:12:56.199Z,5.20
2018-11-26T08:15:25.443Z,5.30
2018-11-26T08:17:53.600Z,5.40
2018-11-26T08:20:21.792Z,5.40
2018-11-26T08:22:49.960Z,5.30
2018-11-26T08:25:19.476Z,5.40
2018-11-26T08:27:48.344Z,5.50
2018-11-26T08:30:17.423Z,5.60
2018-11-26T08:32:46.801Z,5.60
2018-11-26T08:35:15.848Z,5.60
2018-11-26T08:37:49.606Z,5.60
2018-11-26T08:40:21.319Z,5.60
2018-11-26T08:42:55.642Z,5.60
2018-11-26T08:45:29.514Z,5.70
2018-11-26T08:48:05.070Z,5.70
2018-11-26T08:50:33.504Z,5.70
2018-11-26T08:53:01.692Z,5.70
2018-11-26T08:55:29.856Z,5.70
2018-11-26T08:57:58.021Z,5.70
2018-11-26T09:00:26.187Z,5.70
2018-11-26T09:02:55.272Z,5.70
2018-11-26T09:05:29.073Z,5.70
2018-11-26T09:07:57.298Z,5.70
2018-11-26T09:10:25.480Z,5.80
2018-11-26T09:12:53.668Z,5.90
2018-11-26T09:15:21.836Z,5.90
2018-11-26T09:17:50.006Z,6.00
2018-11-26T09:20:18.176Z,6.00
2018-11-26T09:22:46.372Z,5.90
2018-11-26T09:25:14.555Z,5.90
2018-11-26T09:27:42.712Z,6.00
2018-11-26T09:30:13.005Z,5.90
2018-11-26T09:32:41.803Z,6.00
2018-11-26T09:35:13.777Z,6.00
2018-11-26T09:37:41.915Z,5.90
2018-11-26T09:40:11.854Z,5.90
2018-11-26T09:42:40.040Z,5.80
2018-11-26T09:45:10.880Z,5.80
2018-11-26T09:47:39.059Z,5.90
2018-11-26T09:50:10.379Z,6.00
2018-11-26T09:52:38.560Z,6.10
2018-11-26T09:55:07.056Z,5.90
2018-11-26T09:57:35.632Z,5.90
2018-11-26T10:00:05.456Z,6.00
2018-11-26T10:02:33.620Z,6.00
2018-11-26T10:05:01.771Z,6.10
2018-11-26T10:07:29.931Z,6.10
2018-11-26T10:09:58.103Z,6.10
2018-11-26T10:12:26.272Z,6.20
2018-11-26T10:14:54.436Z,6.10
2018-11-26T10:17:22.579Z,6.10
2018-11-26T10:19:50.742Z,6.10
2018-11-26T10:22:18.932Z,6.10
2018-11-26T10:24:47.112Z,6.20
2018-11-26T10:27:15.315Z,6.20
2018-11-26T10:29:43.459Z,6.40
2018-11-26T10:32:11.637Z,6.40
2018-11-26T10:34:39.796Z,6.40
2018-11-26T10:37:07.959Z,6.30
2018-11-26T10:39:36.146Z,6.30
2018-11-26T10:42:04.367Z,6.30
2018-11-26T10:44:32.853Z,6.30
2018-11-26T10:47:01.059Z,6.40
2018-11-26T10:49:29.236Z,6.30
2018-11-26T10:51:57.428Z,6.30
2018-11-26T10:54:25.683Z,6.30
2018-11-26T10:56:53.872Z,6.30
2018-11-26T10:59:22.051Z,6.30
2018-11-26T11:01:55.683Z,6.30
2018-11-26T11:04:23.894Z,6.20
2018-11-26T11:06:55.863Z,6.30
2018-11-26T11:09:20.332Z,6.30
2018-11-26T11:11:48.521Z,6.20
2018-11-26T11:14:16.732Z,6.20
2018-11-26T11:16:44.959Z,6.30
2018-11-26T11:19:13.139Z,6.30
2018-11-26T11:21:41.333Z,6.30
2018-11-26T11:24:09.531Z,6.40
2018-11-26T11:26:37.712Z,6.40
2018-11-26T11:29:05.990Z,6.50
2018-11-26T11:31:34.195Z,6.50
2018-11-26T11:34:02.359Z,6.40
2018-11-26T11:36:30.542Z,6.40
2018-11-26T11:38:58.712Z,6.40
2018-11-26T11:41:26.878Z,6.40
2018-11-26T11:43:55.036Z,6.40
2018-11-26T11:46:23.202Z,6.40
2018-11-26T11:48:51.392Z,6.40
2018-11-26T11:51:19.559Z,6.40
2018-11-26T11:53:47.728Z,6.30
2018-11-26T11:56:16.172Z,6.40
2018-11-26T11:58:44.322Z,6.40
2018-11-26T12:01:12.485Z,6.50
2018-11-26T12:03:40.683Z,6.50
2018-11-26T12:06:08.893Z,6.40
2018-11-26T12:08:37.161Z,6.40
2018-11-26T12:11:06.294Z,6.30
2018-11-26T12:13:34.556Z,6.30
2018-11-26T12:16:02.728Z,6.30
2018-11-26T12:18:30.898Z,6.30
2018-11-26T12:20:59.041Z,6.20
2018-11-26T12:23:27.210Z,6.10
2018-11-26T12:25:55.358Z,6.20
2018-11-26T12:28:23.525Z,6.20
2018-11-26T12:30:51.699Z,6.10
2018-11-26T12:33:19.866Z,6.10
2018-11-26T12:35:48.063Z,6.00
2018-11-26T12:38:16.226Z,5.90
2018-11-26T12:40:44.662Z,6.00
2018-11-26T12:43:12.833Z,5.90
2018-11-26T12:45:41.000Z,5.90
2018-11-26T12:48:09.209Z,5.90
2018-11-26T12:50:37.385Z,6.00
2018-11-26T12:53:05.965Z,6.00
2018-11-26T12:55:35.422Z,6.00
2018-11-26T12:58:03.609Z,6.00
2018-11-26T13:00:31.769Z,5.90
2018-11-26T13:03:01.438Z,5.80
2018-11-26T13:05:29.602Z,5.90
2018-11-26T13:07:57.787Z,5.90
2018-11-26T13:10:25.941Z,5.90
2018-11-26T13:12:54.109Z,5.90
2018-11-26T13:15:25.546Z,5.90
2018-11-26T13:17:53.709Z,5.80
2018-11-26T13:20:24.625Z,5.90
2018-11-26T13:22:53.198Z,5.90
2018-11-26T13:25:25.410Z,5.90
2018-11-26T13:27:57.793Z,5.90
2018-11-26T13:30:31.149Z,5.80
2018-11-26T13:33:01.495Z,5.90
2018-11-26T13:35:29.671Z,5.90
2018-11-26T13:37:58.018Z,5.90
2018-11-26T13:40:26.030Z,5.90
2018-11-26T13:42:54.240Z,5.80
2018-11-26T13:45:23.829Z,5.90
2018-11-26T13:47:52.012Z,5.90
2018-11-26T13:50:29.792Z,5.80
2018-11-26T13:52:58.026Z,5.90
2018-11-26T13:55:26.207Z,5.80
2018-11-26T13:57:54.369Z,5.80
2018-11-26T14:00:22.532Z,5.80
2018-11-26T14:02:50.718Z,5.90
2018-11-26T14:05:19.322Z,5.90
2018-11-26T14:07:47.773Z,5.90
2018-11-26T14:10:21.057Z,5.90
2018-11-26T14:12:54.759Z,5.80
2018-11-26T14:15:22.950Z,5.80
2018-11-26T14:17:51.126Z,5.80
2018-11-26T14:20:19.311Z,5.80
2018-11-26T14:22:47.469Z,5.80
2018-11-26T14:25:16.674Z,5.80
2018-11-26T14:27:45.046Z,5.70
2018-11-26T14:30:14.778Z,5.80
2018-11-26T14:32:42.923Z,5.80
2018-11-26T14:35:12.116Z,5.80
2018-11-26T14:37:39.302Z,5.90
2018-11-26T14:40:10.250Z,5.90
2018-11-26T14:42:38.499Z,5.80
2018-11-26T14:45:08.889Z,5.90
2018-11-26T14:47:37.056Z,5.90
2018-11-26T14:50:07.797Z,5.80
2018-11-26T14:52:35.997Z,5.90
2018-11-26T14:55:04.753Z,5.80
2018-11-26T14:57:32.942Z,5.90
2018-11-26T15:00:01.138Z,5.90
2018-11-26T15:02:29.312Z,5.90
2018-11-26T15:04:57.500Z,5.80
2018-11-26T15:07:25.658Z,5.80
2018-11-26T15:09:53.896Z,5.90
2018-11-26T15:12:22.077Z,5.80
2018-11-26T15:14:50.262Z,5.80
2018-11-26T15:17:18.457Z,5.80
2018-11-26T15:19:46.631Z,5.80
2018-11-26T15:22:14.801Z,5.80
2018-11-26T15:24:43.028Z,5.80
2018-11-26T15:27:11.193Z,5.80
2018-11-26T15:29:39.378Z,5.90
2018-11-26T15:32:07.570Z,5.90
2018-11-26T15:34:35.764Z,5.90
2018-11-26T15:37:03.932Z,5.90
2018-11-26T15:39:32.104Z,5.90
2018-11-26T15:42:00.253Z,5.80
2018-11-26T15:44:28.426Z,5.80
2018-11-26T15:46:56.593Z,5.70
2018-11-26T15:49:24.761Z,5.70
2018-11-26T15:51:52.914Z,5.70
2018-11-26T15:54:21.093Z,5.70
2018-11-26T15:56:49.250Z,5.70
2018-11-26T15:59:17.417Z,5.60
2018-11-26T16:01:45.577Z,5.60
2018-11-26T16:04:13.745Z,5.60
2018-11-26T16:06:41.935Z,5.60
2018-11-26T16:09:10.278Z,5.60
2018-11-26T16:11:38.772Z,5.60
2018-11-26T16:14:07.645Z,5.70
2018-11-26T16:16:36.038Z,5.70
2018-11-26T16:19:04.215Z,5.60
2018-11-26T16:21:32.359Z,5.50
2018-11-26T16:24:00.526Z,5.50
2018-11-26T16:26:28.667Z,5.50
2018-11-26T16:28:56.841Z,5.60
2018-11-26T16:31:24.994Z,5.50
2018-11-26T16:33:53.166Z,5.60
2018-11-26T16:36:21.370Z,5.40
2018-11-26T16:38:49.542Z,5.40
2018-11-26T16:41:17.706Z,5.50
2018-11-26T16:43:45.889Z,5.40
2018-11-26T16:46:14.076Z,5.30
2018-11-26T16:48:42.253Z,5.40
2018-11-26T16:51:10.433Z,5.40
2018-11-26T16:53:38.625Z,5.50
2018-11-26T16:56:06.789Z,5.40
2018-11-26T16:58:34.969Z,5.50
2018-11-26T17:01:03.138Z,5.40
2018-11-26T17:03:31.333Z,5.40
2018-11-26T17:05:59.495Z,5.30
2018-11-26T17:08:27.697Z,5.40
2018-11-26T17:10:55.837Z,5.40
2018-11-26T17:13:24.033Z,5.40
2018-11-26T17:15:52.205Z,5.50
2018-11-26T17:18:20.368Z,5.50
2018-11-26T17:20:48.531Z,5.40
2018-11-26T17:23:16.721Z,5.30
2018-11-26T17:25:44.885Z,5.50
2018-11-26T17:28:13.039Z,5.50
2018-11-26T17:30:41.383Z,5.60
2018-11-26T17:33:10.739Z,5.50
2018-11-26T17:35:38.921Z,5.50
2018-11-26T17:38:07.260Z,5.50
2018-11-26T17:40:35.999Z,5.40
2018-11-26T17:43:04.161Z,5.30
2018-11-26T17:45:32.341Z,5.20
2018-11-26T17:48:00.539Z,5.20
2018-11-26T17:50:32.188Z,5.40
2018-11-26T17:53:00.454Z,5.20
2018-11-26T17:55:28.652Z,5.30
2018-11-26T17:57:56.818Z,5.40
2018-11-26T18:00:28.489Z,5.30
2018-11-26T18:02:56.661Z,5.40
2018-11-26T18:05:26.396Z,5.40
2018-11-26T18:07:58.037Z,5.30
2018-11-26T18:10:26.217Z,5.10
2018-11-26T18:12:54.370Z,5.30
2018-11-26T18:15:22.556Z,5.40
2018-11-26T18:17:50.746Z,5.40
2018-11-26T18:20:20.205Z,5.30
2018-11-26T18:22:49.774Z,5.40
2018-11-26T18:25:18.364Z,5.40
2018-11-26T18:28:03.777Z,5.30
2018-11-26T18:30:34.798Z,5.40
2018-11-26T18:33:02.957Z,5.40
2018-11-26T18:35:31.137Z,5.40
2018-11-26T18:37:59.298Z,5.30
2018-11-26T18:40:27.461Z,5.30
2018-11-26T18:42:55.617Z,5.20
2018-11-26T18:45:23.768Z,5.30
2018-11-26T18:47:51.946Z,5.10
2018-11-26T18:50:21.069Z,5.10
2018-11-26T18:52:50.042Z,5.30
2018-11-26T18:55:18.380Z,5.20
2018-11-26T18:57:46.616Z,5.20
2018-11-26T19:00:36.398Z,5.20
2018-11-26T19:03:04.899Z,5.40
2018-11-26T19:05:33.053Z,5.40
2018-11-26T19:08:01.201Z,5.30
2018-11-26T19:10:32.192Z,5.40
2018-11-26T19:13:05.157Z,5.40
2018-11-26T19:15:36.187Z,5.40
2018-11-26T19:18:20.620Z,5.20
2018-11-26T19:20:48.800Z,5.00
2018-11-26T19:23:16.978Z,5.20
2018-11-26T19:25:45.851Z,5.10
2018-11-26T19:28:14.015Z,5.10
2018-11-26T19:30:42.167Z,5.10
2018-11-26T19:33:10.930Z,5.20
2018-11-26T19:35:39.409Z,5.30
2018-11-26T19:38:07.921Z,5.30
2018-11-26T19:40:37.423Z,5.40
2018-11-26T19:43:06.014Z,5.20
2018-11-26T19:45:34.256Z,5.10
2018-11-26T19:48:02.539Z,5.20
2018-11-26T19:50:30.719Z,5.10
2018-11-26T19:52:59.082Z,5.10
2018-11-26T19:55:27.525Z,5.10
2018-11-26T19:57:57.342Z,5.00
2018-11-26T20:00:27.540Z,5.10
2018-11-26T20:03:10.390Z,4.90
2018-11-26T20:06:12.951Z,4.90
2018-11-26T20:08:41.776Z,4.90
2018-11-26T20:11:10.705Z,5.00
2018-11-26T20:13:38.951Z,5.00
2018-11-26T20:16:11.188Z,5.00
2018-11-26T20:18:39.384Z,5.00
2018-11-26T20:21:07.588Z,5.20
2018-11-26T20:23:35.806Z,5.30
2018-11-26T20:26:03.993Z,5.10
2018-11-26T20:28:32.205Z,5.00
2018-11-26T20:31:00.395Z,5.00
2018-11-26T20:33:28.614Z,5.00
2018-11-26T20:35:56.837Z,4.80
2018-11-26T20:38:25.033Z,4.70
2018-11-26T20:40:53.228Z,4.80
2018-11-26T20:43:21.443Z,4.90
2018-11-26T20:45:50.120Z,5.00
2018-11-26T20:48:18.350Z,4.80
2018-11-26T20:50:50.114Z,4.60
2018-11-26T20:53:19.685Z,4.60
2018-11-26T20:55:47.937Z,4.60
2018-11-26T20:58:16.147Z,4.60
2018-11-26T21:00:44.421Z,4.60
2018-11-26T21:03:12.592Z,4.70
2018-11-26T21:05:41.528Z,4.70
2018-11-26T21:08:09.840Z,4.70
2018-11-26T21:10:38.102Z,4.70
2018-11-26T21:13:06.432Z,4.80
2018-11-26T21:15:34.609Z,4.80
2018-11-26T21:18:08.132Z,4.80
2018-11-26T21:20:38.025Z,4.80
2018-11-26T21:23:08.973Z,4.80
2018-11-26T21:25:37.204Z,5.00
2018-11-26T21:28:06.058Z,4.90
2018-11-26T21:30:34.233Z,5.10
2018-11-26T21:33:02.455Z,5.00
2018-11-26T21:35:30.664Z,5.00
2018-11-26T21:37:58.995Z,5.00
2018-11-26T21:40:27.165Z,5.10
2018-11-26T21:42:55.388Z,5.30
2018-11-26T21:45:29.031Z,5.40
2018-11-26T21:47:57.246Z,5.30
2018-11-26T21:50:25.491Z,5.30
2018-11-26T21:52:53.679Z,5.20
2018-11-26T21:55:21.939Z,5.30
2018-11-26T21:57:50.125Z,5.20
2018-11-26T22:00:23.436Z,5.10
2018-11-26T22:02:51.860Z,5.30
2018-11-26T22:05:20.067Z,5.30
2018-11-26T22:07:48.305Z,5.30
2018-11-26T22:10:18.850Z,5.20
2018-11-26T22:12:48.434Z,5.30
2018-11-26T22:15:16.713Z,5.40
2018-11-26T22:20:21.891Z,5.60
2018-11-26T22:22:50.110Z,5.50
2018-11-26T22:25:18.871Z,5.50
2018-11-26T22:27:46.533Z,5.40
2018-11-26T22:30:31.246Z,5.40
2018-11-26T22:32:59.435Z,5.40
2018-11-26T22:35:27.831Z,5.50
2018-11-26T22:37:56.066Z,5.60
2018-11-26T22:40:25.339Z,5.60
2018-11-26T22:42:53.622Z,5.50
2018-11-26T22:45:28.895Z,5.40
2018-11-26T22:47:59.462Z,5.30
2018-11-26T22:50:27.679Z,5.20
2018-11-26T22:52:55.867Z,5.30
2018-11-26T22:55:24.040Z,5.30
2018-11-26T22:57:52.194Z,5.30
2018-11-26T23:00:24.077Z,5.30
2018-11-26T23:02:54.470Z,5.40
2018-11-26T23:05:22.661Z,5.30
2018-11-26T23:07:50.840Z,5.30
2018-11-26T23:10:19.009Z,5.20
2018-11-26T23:12:47.188Z,5.30
2018-11-26T23:15:15.861Z,5.20
2018-11-26T23:17:44.761Z,5.20
2018-11-26T23:20:13.994Z,5.20
2018-11-26T23:22:42.221Z,5.30
2018-11-26T23:25:12.481Z,5.40
2018-11-26T23:27:40.644Z,5.30
2018-11-26T23:30:25.861Z,5.30
2018-11-26T23:32:57.053Z,5.20
2018-11-26T23:35:25.257Z,5.20
2018-11-26T23:37:53.416Z,5.20
2018-11-26T23:40:21.577Z,5.30
2018-11-26T23:42:49.785Z,5.30
2018-11-26T23:45:20.006Z,5.40
2018-11-26T23:47:48.193Z,5.30
2018-11-26T23:50:16.931Z,5.40
2018-11-26T23:52:45.494Z,5.40
2018-11-26T23:55:14.968Z,5.50
2018-11-26T23:57:43.130Z,5.50
